Terminal Aerodrome Forecast
Issued by NWS

Home | Current Version | Previous Version | Text Only | Print | Product List | Glossary On
Versions: 1 2 3 4 5 6 7 8 9 10 11 12 13
915
FTUS43 KMQT 212337
TAFSAW
TAF
KSAW 212337Z 2200/2224 07005KT P6SM SCT100
     FM220300 11003KT P6SM SCT100
     FM220800 12003KT P6SM BKN090
     FM221000 12003KT P6SM BKN060
     FM221400 13005KT P6SM BKN070=

USA.gov is the U.S. government's official web portal to all federal, state and local government web resources and services.